Time;durP1;ratioP1;P1;durP2;ratioP2;P2;SDS_P1;SDS_P2;PMS_P1;PMS_P2;Temp;Humidity;BMP_temperature;BMP_pressure;BME280_temperature;BME280_humidity;BME280_pressure;Samples;Min_cycle;Max_cycle;Signal;HPM_P1;HPM_P2
2021/07/14 00:00:58;;;;;;;0.30;0.30;;;;;;;;;;5093065;28;20443;-66
2021/07/14 00:03:24;;;;;;;0.30;0.30;;;;;;;;;;5093344;28;20193;-67
2021/07/14 00:05:50;;;;;;;0.30;0.30;;;;;;;;;;5093070;28;20412;-65
2021/07/14 00:08:16;;;;;;;0.30;0.30;;;;;;;;;;5092998;28;20448;-65
2021/07/14 00:10:42;;;;;;;0.30;0.30;;;;;;;;;;5093072;28;20838;-65
2021/07/14 00:13:23;;;;;;;0.30;0.30;;;;;;;;;;5093000;28;20435;-66
2021/07/14 00:23:35;;;;;;;0.30;0.30;;;;;;;;;;5093155;28;20402;-64
2021/07/14 00:26:01;;;;;;;0.30;0.30;;;;;;;;;;5092913;28;20372;-66
2021/07/14 00:28:27;;;;;;;0.30;0.30;;;;;;;;;;5092686;28;20530;-64
2021/07/14 00:30:56;;;;;;;0.30;0.30;;;;;;;;;;5092523;28;20434;-66
2021/07/14 00:33:24;;;;;;;0.40;0.40;;;;;;;;;;5092542;28;20430;-65
2021/07/14 00:35:50;;;;;;;0.30;0.30;;;;;;;;;;5092349;28;20403;-64
2021/07/14 00:38:16;;;;;;;0.30;0.30;;;;;;;;;;5092660;28;20385;-64
2021/07/14 00:40:42;;;;;;;0.30;0.30;;;;;;;;;;5092418;28;20407;-65
2021/07/14 00:43:08;;;;;;;0.30;0.30;;;;;;;;;;5092432;28;20446;-65
2021/07/14 00:45:34;;;;;;;0.30;0.30;;;;;;;;;;5092507;28;20433;-65
2021/07/14 00:48:01;;;;;;;0.30;0.30;;;;;;;;;;5092430;28;20512;-64
2021/07/14 00:50:28;;;;;;;0.30;0.30;;;;;;;;;;5092037;28;20389;-66
2021/07/14 00:52:54;;;;;;;0.30;0.30;;;;;;;;;;5092384;28;20474;-65
2021/07/14 00:55:20;;;;;;;0.30;0.30;;;;;;;;;;5092304;28;20177;-66
2021/07/14 00:57:46;;;;;;;0.30;0.30;;;;;;;;;;5092229;28;20427;-66
2021/07/14 01:00:13;;;;;;;0.30;0.30;;;;;;;;;;5091878;28;20412;-66
2021/07/14 01:02:39;;;;;;;0.30;0.20;;;;;;;;;;5092027;28;20488;-66
2021/07/14 01:05:13;;;;;;;0.30;0.30;;;;;;;;;;5091543;28;20165;-66
2021/07/14 01:07:39;;;;;;;0.30;0.30;;;;;;;;;;5091872;28;20200;-64
2021/07/14 01:10:08;;;;;;;0.40;0.40;;;;;;;;;;5091710;28;20469;-64
2021/07/14 01:12:56;;;;;;;0.40;0.40;;;;;;;;;;5091883;28;20502;-64
2021/07/14 01:15:23;;;;;;;0.40;0.40;;;;;;;;;;5091767;28;20184;-65
2021/07/14 01:17:53;;;;;;;0.30;0.30;;;;;;;;;;5091890;28;20410;-65
2021/07/14 01:20:22;;;;;;;0.30;0.30;;;;;;;;;;5091405;28;20440;-66
2021/07/14 01:23:07;;;;;;;0.30;0.30;;;;;;;;;;5091773;28;20424;-66
2021/07/14 01:25:40;;;;;;;0.30;0.30;;;;;;;;;;5091823;28;20213;-66
2021/07/14 01:28:07;;;;;;;0.30;0.30;;;;;;;;;;5091792;28;20575;-64
2021/07/14 01:30:34;;;;;;;0.30;0.30;;;;;;;;;;5091405;28;20200;-65
2021/07/14 01:33:02;;;;;;;0.30;0.30;;;;;;;;;;5091627;28;20478;-63
2021/07/14 01:35:31;;;;;;;0.30;0.30;;;;;;;;;;5091548;28;20885;-65
2021/07/14 01:37:57;;;;;;;0.30;0.30;;;;;;;;;;5091791;28;20633;-64
2021/07/14 01:40:24;;;;;;;0.30;0.30;;;;;;;;;;5091399;28;20208;-63
2021/07/14 01:42:53;;;;;;;0.30;0.30;;;;;;;;;;5091555;28;20455;-65
2021/07/14 01:45:19;;;;;;;0.30;0.30;;;;;;;;;;5091540;28;20166;-66
2021/07/14 01:47:47;;;;;;;0.30;0.30;;;;;;;;;;5094971;28;20228;-62
2021/07/14 01:50:13;;;;;;;0.40;0.40;;;;;;;;;;5095411;28;20475;-65
2021/07/14 01:52:40;;;;;;;0.30;0.30;;;;;;;;;;5095850;28;20331;-65
2021/07/14 01:55:07;;;;;;;0.30;0.28;;;;;;;;;;5095730;28;20249;-66
2021/07/14 01:57:35;;;;;;;0.30;0.30;;;;;;;;;;5095706;28;20193;-63
2021/07/14 02:00:01;;;;;;;0.30;0.30;;;;;;;;;;5095595;28;20399;-62
2021/07/14 02:02:29;;;;;;;0.30;0.30;;;;;;;;;;5095866;28;20270;-63
2021/07/14 02:04:57;;;;;;;0.30;0.30;;;;;;;;;;5095584;28;20302;-65
2021/07/14 02:07:26;;;;;;;0.30;0.30;;;;;;;;;;5095379;28;20331;-65
2021/07/14 02:09:53;;;;;;;0.30;0.30;;;;;;;;;;5095169;28;20380;-65
2021/07/14 02:12:21;;;;;;;0.30;0.30;;;;;;;;;;5095146;28;20468;-65
2021/07/14 02:14:49;;;;;;;0.30;0.30;;;;;;;;;;5095463;28;20179;-65
2021/07/14 02:17:16;;;;;;;0.30;0.30;;;;;;;;;;5095251;28;20451;-65
2021/07/14 02:19:47;;;;;;;0.30;0.30;;;;;;;;;;5095113;28;20404;-64
2021/07/14 02:22:13;;;;;;;0.30;0.30;;;;;;;;;;5095103;28;20426;-66
2021/07/14 02:24:39;;;;;;;0.30;0.30;;;;;;;;;;5095059;28;20453;-64
2021/07/14 02:27:06;;;;;;;0.30;0.30;;;;;;;;;;5095010;28;20163;-65
2021/07/14 02:29:36;;;;;;;0.30;0.30;;;;;;;;;;5094994;28;20750;-65
2021/07/14 02:32:03;;;;;;;0.30;0.30;;;;;;;;;;5094693;28;20265;-64
2021/07/14 02:34:29;;;;;;;0.30;0.30;;;;;;;;;;5094753;28;20405;-65
2021/07/14 02:36:56;;;;;;;0.30;0.20;;;;;;;;;;5094912;28;20211;-65
2021/07/14 02:39:23;;;;;;;0.30;0.30;;;;;;;;;;5094715;28;20219;-65
2021/07/14 02:41:54;;;;;;;0.30;0.30;;;;;;;;;;5094586;28;20587;-65
2021/07/14 02:44:22;;;;;;;0.30;0.30;;;;;;;;;;5094837;28;20191;-64
2021/07/14 02:46:49;;;;;;;0.30;0.30;;;;;;;;;;5094712;28;20405;-65
2021/07/14 02:49:19;;;;;;;0.30;0.30;;;;;;;;;;5094527;28;20198;-65
2021/07/14 02:51:46;;;;;;;0.30;0.30;;;;;;;;;;5094301;28;20805;-64
2021/07/14 02:54:17;;;;;;;0.30;0.30;;;;;;;;;;5075714;28;20278;-64
2021/07/14 02:56:44;;;;;;;0.30;0.30;;;;;;;;;;5094519;28;20374;-65
2021/07/14 02:59:10;;;;;;;0.30;0.30;;;;;;;;;;5093017;28;20175;-66
2021/07/14 03:01:40;;;;;;;0.30;0.30;;;;;;;;;;5094568;28;20782;-63
2021/07/14 03:04:07;;;;;;;0.30;0.30;;;;;;;;;;5094315;28;20414;-64
2021/07/14 03:06:34;;;;;;;0.30;0.30;;;;;;;;;;5094096;28;20438;-64
2021/07/14 03:09:04;;;;;;;0.30;0.30;;;;;;;;;;5094381;28;20575;-65
2021/07/14 03:11:40;;;;;;;0.30;0.30;;;;;;;;;;5094022;28;20511;-64
2021/07/14 03:14:06;;;;;;;0.30;0.30;;;;;;;;;;5094186;28;20174;-64
2021/07/14 03:16:33;;;;;;;0.40;0.40;;;;;;;;;;5093954;28;20644;-63
2021/07/14 03:19:00;;;;;;;0.30;0.30;;;;;;;;;;5093964;28;20849;-66
2021/07/14 03:21:28;;;;;;;0.30;0.30;;;;;;;;;;5094175;28;20205;-64
2021/07/14 03:23:54;;;;;;;0.40;0.40;;;;;;;;;;5093968;28;20421;-64
2021/07/14 03:26:21;;;;;;;0.30;0.30;;;;;;;;;;5093802;28;20398;-65
2021/07/14 03:28:47;;;;;;;0.30;0.30;;;;;;;;;;5093814;28;20545;-66
2021/07/14 03:31:14;;;;;;;0.30;0.30;;;;;;;;;;5093437;28;20410;-66
2021/07/14 03:33:40;;;;;;;0.32;0.32;;;;;;;;;;5093689;28;20390;-65
2021/07/14 03:36:07;;;;;;;0.30;0.30;;;;;;;;;;5093842;28;20274;-65
2021/07/14 03:38:34;;;;;;;0.30;0.30;;;;;;;;;;5093703;28;20378;-64
2021/07/14 03:41:01;;;;;;;0.30;0.30;;;;;;;;;;5093315;28;20184;-65
2021/07/14 03:43:27;;;;;;;0.30;0.30;;;;;;;;;;5093643;28;20413;-64
2021/07/14 03:45:55;;;;;;;0.30;0.30;;;;;;;;;;5093970;28;20921;-65
2021/07/14 03:48:22;;;;;;;0.30;0.30;;;;;;;;;;5093427;28;20234;-65
2021/07/14 03:50:52;;;;;;;0.30;0.30;;;;;;;;;;5093531;28;20174;-65
2021/07/14 03:53:20;;;;;;;0.30;0.30;;;;;;;;;;5093552;28;20415;-65
2021/07/14 03:55:46;;;;;;;0.30;0.30;;;;;;;;;;5093379;28;20471;-64
2021/07/14 03:58:13;;;;;;;0.30;0.30;;;;;;;;;;5093028;28;20172;-66
2021/07/14 04:00:39;;;;;;;0.30;0.30;;;;;;;;;;5092927;28;20411;-64
2021/07/14 04:03:06;;;;;;;0.30;0.30;;;;;;;;;;5093189;28;20190;-66
2021/07/14 04:05:33;;;;;;;0.30;0.30;;;;;;;;;;5093102;28;20395;-64
2021/07/14 04:07:59;;;;;;;0.30;0.30;;;;;;;;;;5092945;28;20199;-64
2021/07/14 04:10:25;;;;;;;0.30;0.30;;;;;;;;;;5092428;28;20448;-64
2021/07/14 04:12:51;;;;;;;0.30;0.30;;;;;;;;;;5093012;28;20194;-63
2021/07/14 04:15:17;;;;;;;0.40;0.40;;;;;;;;;;5092630;28;20919;-64
2021/07/14 04:17:43;;;;;;;0.30;0.30;;;;;;;;;;5092210;28;20408;-62
2021/07/14 04:20:09;;;;;;;0.40;0.40;;;;;;;;;;5092869;28;20420;-62
2021/07/14 04:22:35;;;;;;;0.30;0.30;;;;;;;;;;5092742;28;20188;-65
2021/07/14 04:25:01;;;;;;;0.30;0.30;;;;;;;;;;5092823;28;20671;-63
2021/07/14 04:27:27;;;;;;;0.30;0.30;;;;;;;;;;5092700;28;20517;-64
2021/07/14 04:29:53;;;;;;;0.30;0.30;;;;;;;;;;5092865;28;20353;-63
2021/07/14 04:32:19;;;;;;;0.30;0.30;;;;;;;;;;5092566;28;20187;-62
2021/07/14 04:34:45;;;;;;;0.30;0.30;;;;;;;;;;5092651;28;20397;-64
2021/07/14 04:37:11;;;;;;;0.30;0.30;;;;;;;;;;5092555;28;20205;-64
2021/07/14 04:39:37;;;;;;;0.30;0.30;;;;;;;;;;5092523;28;20467;-64
2021/07/14 04:42:03;;;;;;;0.30;0.30;;;;;;;;;;5106546;22;20526;-62
2021/07/14 04:44:33;;;;;;;0.30;0.30;;;;;;;;;;5052183;28;20523;-62
2021/07/14 04:46:59;;;;;;;0.40;0.40;;;;;;;;;;5052070;28;20410;-62
2021/07/14 04:49:25;;;;;;;0.30;0.30;;;;;;;;;;5052010;28;20454;-62
2021/07/14 04:51:51;;;;;;;0.30;0.30;;;;;;;;;;5051744;28;20422;-62
2021/07/14 04:54:17;;;;;;;0.30;0.30;;;;;;;;;;5052074;28;20200;-62
2021/07/14 04:56:45;;;;;;;0.30;0.30;;;;;;;;;;5051917;28;20426;-62
2021/07/14 04:59:12;;;;;;;0.30;0.30;;;;;;;;;;5051784;28;20776;-62
2021/07/14 05:01:37;;;;;;;0.30;0.30;;;;;;;;;;5051503;28;20884;-62
2021/07/14 05:04:04;;;;;;;0.30;0.30;;;;;;;;;;5051920;28;20178;-62
2021/07/14 05:06:30;;;;;;;0.30;0.30;;;;;;;;;;5051776;28;20415;-62
2021/07/14 05:08:57;;;;;;;0.30;0.30;;;;;;;;;;5051588;28;20473;-62
2021/07/14 05:11:23;;;;;;;0.30;0.30;;;;;;;;;;5051684;28;20403;-62
2021/07/14 05:13:49;;;;;;;0.30;0.30;;;;;;;;;;5033873;28;20196;-62
2021/07/14 05:16:15;;;;;;;0.30;0.30;;;;;;;;;;5051697;28;20399;-62
2021/07/14 05:18:41;;;;;;;0.40;0.40;;;;;;;;;;5051530;28;20446;-62
2021/07/14 05:21:07;;;;;;;0.30;0.30;;;;;;;;;;5050641;28;20427;-62
2021/07/14 05:23:34;;;;;;;0.30;0.30;;;;;;;;;;5051316;28;20447;-62
2021/07/14 05:26:00;;;;;;;0.30;0.30;;;;;;;;;;5051547;28;20440;-62
2021/07/14 05:28:27;;;;;;;0.30;0.30;;;;;;;;;;5051304;28;20248;-62
2021/07/14 05:30:53;;;;;;;0.30;0.30;;;;;;;;;;5051323;28;20753;-61
2021/07/14 05:33:19;;;;;;;0.30;0.30;;;;;;;;;;5051480;28;20503;-61
2021/07/14 05:35:45;;;;;;;0.30;0.30;;;;;;;;;;5051310;28;20213;-62
2021/07/14 05:38:18;;;;;;;0.30;0.30;;;;;;;;;;5051512;28;20415;-62
2021/07/14 05:40:45;;;;;;;0.30;0.30;;;;;;;;;;5051155;28;20818;-62
2021/07/14 05:43:11;;;;;;;0.30;0.30;;;;;;;;;;5051231;28;20452;-62
2021/07/14 05:45:37;;;;;;;0.30;0.30;;;;;;;;;;5051280;28;20413;-62
2021/07/14 05:48:04;;;;;;;0.40;0.40;;;;;;;;;;5051313;28;20471;-62
2021/07/14 05:50:30;;;;;;;0.30;0.30;;;;;;;;;;5050898;28;20415;-61
2021/07/14 05:52:56;;;;;;;0.30;0.30;;;;;;;;;;5051292;28;20192;-62
2021/07/14 05:55:22;;;;;;;0.30;0.30;;;;;;;;;;5051240;28;20756;-61
2021/07/14 05:57:51;;;;;;;0.30;0.30;;;;;;;;;;5051140;28;20472;-62
2021/07/14 06:00:17;;;;;;;0.30;0.30;;;;;;;;;;5050894;28;20407;-62
2021/07/14 06:02:44;;;;;;;0.40;0.40;;;;;;;;;;5051062;28;20629;-62
2021/07/14 06:05:11;;;;;;;0.40;0.40;;;;;;;;;;5051362;28;20416;-62
2021/07/14 06:07:37;;;;;;;0.30;0.30;;;;;;;;;;5050910;28;20452;-62
2021/07/14 06:10:03;;;;;;;0.30;0.30;;;;;;;;;;5050824;28;20493;-62
2021/07/14 06:12:29;;;;;;;0.30;0.30;;;;;;;;;;5050957;28;20455;-62
2021/07/14 06:14:55;;;;;;;0.30;0.30;;;;;;;;;;5051043;28;20479;-62
2021/07/14 06:17:21;;;;;;;0.30;0.30;;;;;;;;;;5050842;28;20431;-62
2021/07/14 06:19:47;;;;;;;0.30;0.30;;;;;;;;;;5050748;28;20404;-62
2021/07/14 06:22:13;;;;;;;0.30;0.30;;;;;;;;;;5051007;28;20788;-62
2021/07/14 06:24:40;;;;;;;0.30;0.30;;;;;;;;;;5050974;28;20399;-61
2021/07/14 06:27:06;;;;;;;0.30;0.30;;;;;;;;;;5050957;28;20464;-62
2021/07/14 06:29:32;;;;;;;0.30;0.30;;;;;;;;;;5048931;28;20458;-61
2021/07/14 06:31:58;;;;;;;0.30;0.30;;;;;;;;;;5050036;28;20413;-61
2021/07/14 06:34:24;;;;;;;0.30;0.30;;;;;;;;;;5054201;28;20805;-61
2021/07/14 06:36:50;;;;;;;0.30;0.30;;;;;;;;;;5054284;28;20414;-62
2021/07/14 06:39:16;;;;;;;0.30;0.30;;;;;;;;;;5054112;28;20451;-61
2021/07/14 06:41:43;;;;;;;0.30;0.30;;;;;;;;;;5053358;28;20199;-62
2021/07/14 06:44:09;;;;;;;0.30;0.30;;;;;;;;;;5054143;28;20783;-61
2021/07/14 06:46:35;;;;;;;0.30;0.30;;;;;;;;;;5053799;28;20438;-61
2021/07/14 06:49:01;;;;;;;0.30;0.30;;;;;;;;;;5053934;28;20457;-61
2021/07/14 06:51:27;;;;;;;0.30;0.30;;;;;;;;;;5053744;28;20582;-61
2021/07/14 06:53:53;;;;;;;0.30;0.30;;;;;;;;;;5053490;28;20399;-61
2021/07/14 06:56:19;;;;;;;0.30;0.30;;;;;;;;;;5035971;28;20426;-61
2021/07/14 06:58:45;;;;;;;0.30;0.30;;;;;;;;;;5052860;28;20407;-62
2021/07/14 07:01:12;;;;;;;0.30;0.30;;;;;;;;;;5053614;28;20457;-62
2021/07/14 07:03:38;;;;;;;0.30;0.30;;;;;;;;;;5053621;28;20436;-62
2021/07/14 07:06:05;;;;;;;0.30;0.30;;;;;;;;;;5053467;28;20203;-62
2021/07/14 07:08:32;;;;;;;0.30;0.30;;;;;;;;;;5053377;28;20457;-62
2021/07/14 07:10:57;;;;;;;0.30;0.30;;;;;;;;;;5052397;28;20779;-62
2021/07/14 07:13:24;;;;;;;0.30;0.30;;;;;;;;;;5052907;28;20425;-62
2021/07/14 07:15:50;;;;;;;0.30;0.30;;;;;;;;;;5052656;28;20403;-62
2021/07/14 07:18:19;;;;;;;0.40;0.40;;;;;;;;;;5053513;28;20407;-62
2021/07/14 07:20:45;;;;;;;0.30;0.30;;;;;;;;;;5053140;28;20409;-62
2021/07/14 07:23:11;;;;;;;0.30;0.30;;;;;;;;;;5053043;28;20430;-62
2021/07/14 07:25:37;;;;;;;0.30;0.30;;;;;;;;;;5053009;28;20409;-62
2021/07/14 07:28:04;;;;;;;0.30;0.30;;;;;;;;;;5052180;28;20449;-62
2021/07/14 07:30:30;;;;;;;0.30;0.30;;;;;;;;;;5052602;28;20756;-62
2021/07/14 07:32:57;;;;;;;0.30;0.30;;;;;;;;;;5052879;28;20784;-62
2021/07/14 07:35:23;;;;;;;0.30;0.30;;;;;;;;;;5052807;28;20416;-62
2021/07/14 07:37:50;;;;;;;0.30;0.30;;;;;;;;;;5052283;28;20410;-62
2021/07/14 07:40:16;;;;;;;0.30;0.30;;;;;;;;;;5052729;28;20414;-62
2021/07/14 07:42:42;;;;;;;0.30;0.30;;;;;;;;;;5052445;28;20425;-62
2021/07/14 07:45:09;;;;;;;0.30;0.30;;;;;;;;;;5051895;28;20562;-62
2021/07/14 07:47:35;;;;;;;0.20;0.20;;;;;;;;;;5052528;28;20456;-62
2021/07/14 07:50:01;;;;;;;0.30;0.30;;;;;;;;;;5051883;28;20500;-62
2021/07/14 07:52:28;;;;;;;0.30;0.30;;;;;;;;;;5052665;28;20436;-62
2021/07/14 07:54:55;;;;;;;0.30;0.30;;;;;;;;;;5052707;28;20791;-62
2021/07/14 07:57:21;;;;;;;0.30;0.30;;;;;;;;;;5052363;28;20522;-62
2021/07/14 07:59:48;;;;;;;0.30;0.30;;;;;;;;;;5050770;28;20478;-62
2021/07/14 08:02:14;;;;;;;0.30;0.30;;;;;;;;;;5052267;28;20418;-62
2021/07/14 08:04:41;;;;;;;0.20;0.20;;;;;;;;;;5051723;28;20445;-62
2021/07/14 08:07:07;;;;;;;0.30;0.30;;;;;;;;;;5052636;28;20407;-61
2021/07/14 08:09:34;;;;;;;0.30;0.30;;;;;;;;;;5052473;28;20477;-62
2021/07/14 08:12:01;;;;;;;0.30;0.30;;;;;;;;;;5051449;28;20434;-62
2021/07/14 08:14:27;;;;;;;0.30;0.30;;;;;;;;;;5053585;28;20819;-62
2021/07/14 08:16:53;;;;;;;0.30;0.30;;;;;;;;;;5052228;28;20422;-62
2021/07/14 08:19:19;;;;;;;0.30;0.30;;;;;;;;;;5052980;28;20467;-62
2021/07/14 08:21:45;;;;;;;0.30;0.30;;;;;;;;;;5052160;28;20410;-62
2021/07/14 08:24:11;;;;;;;0.30;0.30;;;;;;;;;;5052084;28;20414;-62
2021/07/14 08:26:37;;;;;;;0.30;0.30;;;;;;;;;;5052239;28;20788;-61
2021/07/14 08:29:03;;;;;;;0.30;0.30;;;;;;;;;;5052252;28;20461;-61
2021/07/14 08:31:29;;;;;;;0.30;0.30;;;;;;;;;;5052010;28;20406;-62
2021/07/14 08:33:56;;;;;;;0.30;0.30;;;;;;;;;;5051683;28;20414;-62
2021/07/14 08:36:22;;;;;;;0.30;0.30;;;;;;;;;;5051971;28;20432;-62
2021/07/14 08:38:48;;;;;;;0.40;0.40;;;;;;;;;;5052087;28;20406;-62
2021/07/14 08:41:15;;;;;;;0.30;0.30;;;;;;;;;;5051930;28;20836;-62
2021/07/14 08:43:42;;;;;;;0.30;0.30;;;;;;;;;;5051801;28;20446;-62
2021/07/14 08:46:09;;;;;;;0.30;0.30;;;;;;;;;;5050276;28;20405;-62
2021/07/14 08:48:35;;;;;;;0.30;0.30;;;;;;;;;;5051513;28;20500;-62
2021/07/14 08:51:01;;;;;;;0.30;0.30;;;;;;;;;;5051654;28;20824;-62
2021/07/14 08:53:29;;;;;;;0.30;0.30;;;;;;;;;;5050881;28;20426;-62
2021/07/14 08:55:56;;;;;;;0.30;0.30;;;;;;;;;;5050803;28;20490;-62
2021/07/14 08:58:22;;;;;;;0.30;0.30;;;;;;;;;;5051687;28;20892;-62
2021/07/14 09:00:49;;;;;;;0.20;0.20;;;;;;;;;;5050243;28;20808;-62
2021/07/14 09:03:15;;;;;;;0.30;0.30;;;;;;;;;;5051074;28;20429;-62
2021/07/14 09:05:41;;;;;;;0.30;0.30;;;;;;;;;;5052175;28;20906;-62
2021/07/14 09:08:07;;;;;;;0.30;0.30;;;;;;;;;;5050979;28;20809;-62
2021/07/14 09:10:34;;;;;;;0.30;0.30;;;;;;;;;;5051478;28;20407;-62
2021/07/14 09:13:00;;;;;;;0.30;0.30;;;;;;;;;;5051160;28;20422;-62
2021/07/14 09:15:27;;;;;;;0.30;0.30;;;;;;;;;;5051437;28;20402;-62
2021/07/14 09:17:58;;;;;;;0.30;0.30;;;;;;;;;;5050936;28;20414;-62
2021/07/14 09:20:25;;;;;;;0.30;0.30;;;;;;;;;;5051058;28;20406;-62
2021/07/14 09:23:13;;;;;;;0.30;0.30;;;;;;;;;;5051088;28;20888;-61
2021/07/14 09:25:40;;;;;;;0.30;0.30;;;;;;;;;;5051346;28;20401;-62
2021/07/14 09:28:07;;;;;;;0.30;0.30;;;;;;;;;;5050855;28;20424;-62
2021/07/14 09:30:33;;;;;;;0.30;0.30;;;;;;;;;;5050431;28;20448;-62
2021/07/14 09:33:02;;;;;;;0.30;0.30;;;;;;;;;;5051425;28;20791;-62
2021/07/14 09:35:45;;;;;;;0.30;0.30;;;;;;;;;;5051220;28;20456;-62
2021/07/14 09:38:13;;;;;;;0.20;0.20;;;;;;;;;;5051083;28;20415;-62
2021/07/14 09:40:40;;;;;;;0.30;0.30;;;;;;;;;;5050153;28;20413;-62
2021/07/14 09:43:16;;;;;;;0.30;0.30;;;;;;;;;;5050863;28;20486;-62
2021/07/14 09:45:44;;;;;;;0.30;0.30;;;;;;;;;;5051076;28;20418;-62
2021/07/14 09:48:10;;;;;;;0.20;0.20;;;;;;;;;;5051153;28;20490;-62
2021/07/14 09:50:40;;;;;;;0.20;0.20;;;;;;;;;;5051035;28;20449;-62
2021/07/14 09:53:08;;;;;;;0.20;0.20;;;;;;;;;;5050649;28;20397;-62
2021/07/14 09:55:35;;;;;;;0.20;0.20;;;;;;;;;;5051137;28;20406;-62
2021/07/14 09:58:11;;;;;;;0.20;0.20;;;;;;;;;;5050758;28;20493;-62
2021/07/14 10:00:53;;;;;;;0.20;0.20;;;;;;;;;;5050294;28;20887;-62
2021/07/14 10:03:20;;;;;;;0.30;0.30;;;;;;;;;;5049985;28;20516;-61
2021/07/14 10:05:47;;;;;;;0.20;0.20;;;;;;;;;;5050844;28;20415;-63
2021/07/14 10:08:13;;;;;;;0.20;0.20;;;;;;;;;;5053226;28;20429;-62
2021/07/14 10:10:39;;;;;;;0.20;0.20;;;;;;;;;;5054511;28;20445;-61
2021/07/14 10:13:09;;;;;;;0.20;0.20;;;;;;;;;;5054347;28;20460;-61
2021/07/14 10:15:35;;;;;;;0.20;0.20;;;;;;;;;;5054252;28;20406;-61
2021/07/14 10:18:01;;;;;;;0.20;0.20;;;;;;;;;;5054876;28;20787;-61
2021/07/14 10:20:32;;;;;;;0.20;0.20;;;;;;;;;;5054480;28;20417;-61
2021/07/14 10:22:58;;;;;;;0.30;0.30;;;;;;;;;;5054330;28;20426;-62
2021/07/14 10:25:25;;;;;;;0.20;0.20;;;;;;;;;;5053003;28;20753;-61
2021/07/14 10:27:51;;;;;;;0.20;0.20;;;;;;;;;;5054302;28;20457;-61
2021/07/14 10:30:18;;;;;;;0.20;0.20;;;;;;;;;;5053563;28;20451;-61
2021/07/14 10:32:44;;;;;;;0.20;0.20;;;;;;;;;;5053631;28;20445;-62
2021/07/14 10:35:11;;;;;;;0.20;0.20;;;;;;;;;;5054307;28;20416;-62
2021/07/14 10:37:38;;;;;;;0.20;0.20;;;;;;;;;;5053308;28;20397;-62
2021/07/14 10:40:06;;;;;;;0.20;0.20;;;;;;;;;;5054111;28;20406;-62
2021/07/14 10:42:33;;;;;;;0.20;0.20;;;;;;;;;;5082054;22;20504;-65
2021/07/14 10:45:00;;;;;;;0.20;0.20;;;;;;;;;;5073475;28;20413;-64
2021/07/14 10:47:26;;;;;;;0.20;0.20;;;;;;;;;;5073780;28;20423;-64
2021/07/14 10:49:53;;;;;;;0.20;0.20;;;;;;;;;;5073844;28;20436;-64
2021/07/14 10:52:19;;;;;;;0.20;0.20;;;;;;;;;;5070122;28;20488;-64
2021/07/14 10:54:45;;;;;;;0.20;0.20;;;;;;;;;;5035714;28;20404;-65
2021/07/14 10:57:12;;;;;;;0.20;0.20;;;;;;;;;;5053807;28;20407;-63
2021/07/14 10:59:39;;;;;;;0.20;0.20;;;;;;;;;;5053367;28;20414;-65
2021/07/14 11:02:05;;;;;;;0.20;0.20;;;;;;;;;;5053134;28;20976;-64
2021/07/14 11:04:31;;;;;;;0.20;0.20;;;;;;;;;;5053588;28;20410;-64
2021/07/14 11:06:58;;;;;;;0.20;0.20;;;;;;;;;;5053551;28;20900;-64
2021/07/14 11:09:32;;;;;;;0.20;0.20;;;;;;;;;;5053049;28;21030;-65
2021/07/14 11:11:58;;;;;;;0.20;0.20;;;;;;;;;;5052749;28;20607;-65
2021/07/14 11:14:34;;;;;;;0.20;0.20;;;;;;;;;;5036056;28;20417;-62
2021/07/14 11:17:00;;;;;;;0.20;0.20;;;;;;;;;;5073590;28;20398;-66
2021/07/14 11:19:42;;;;;;;0.20;0.20;;;;;;;;;;5072432;28;20472;-65
2021/07/14 11:22:08;;;;;;;0.20;0.20;;;;;;;;;;5072844;28;20455;-66
2021/07/14 11:24:38;;;;;;;0.30;0.30;;;;;;;;;;5073589;28;20797;-66
2021/07/14 11:27:19;;;;;;;0.20;0.20;;;;;;;;;;5072919;28;20401;-63
2021/07/14 11:29:46;;;;;;;0.20;0.20;;;;;;;;;;5073052;28;20867;-63
2021/07/14 11:32:32;;;;;;;0.20;0.20;;;;;;;;;;5072560;28;20401;-66
2021/07/14 11:34:59;;;;;;;0.20;0.20;;;;;;;;;;5073110;28;20402;-66
2021/07/14 11:37:31;;;;;;;0.20;0.20;;;;;;;;;;5072832;28;20821;-66
2021/07/14 11:40:17;;;;;;;0.20;0.20;;;;;;;;;;5073034;28;20986;-65
2021/07/14 11:42:55;;;;;;;0.20;0.20;;;;;;;;;;5071356;28;20469;-65
2021/07/14 11:45:27;;;;;;;0.20;0.20;;;;;;;;;;5072673;28;20406;-66
2021/07/14 11:48:10;;;;;;;0.20;0.20;;;;;;;;;;5072899;28;20982;-66
2021/07/14 11:50:44;;;;;;;0.20;0.20;;;;;;;;;;5072392;28;20413;-65
2021/07/14 11:53:30;;;;;;;0.20;0.20;;;;;;;;;;5072703;28;20428;-65
2021/07/14 11:56:02;;;;;;;0.20;0.20;;;;;;;;;;5072484;28;20407;-64
2021/07/14 11:58:44;;;;;;;0.20;0.20;;;;;;;;;;5073247;28;20409;-64
2021/07/14 12:01:10;;;;;;;0.20;0.20;;;;;;;;;;5071513;28;20393;-64
2021/07/14 12:03:36;;;;;;;0.20;0.20;;;;;;;;;;5072206;28;20856;-64
2021/07/14 12:06:04;;;;;;;0.20;0.20;;;;;;;;;;5072383;28;20492;-64
2021/07/14 12:08:37;;;;;;;0.20;0.20;;;;;;;;;;5072739;28;20948;-64
2021/07/14 12:11:03;;;;;;;0.20;0.20;;;;;;;;;;5072544;28;20414;-65
2021/07/14 12:13:29;;;;;;;0.20;0.20;;;;;;;;;;5072443;28;20465;-65
2021/07/14 12:15:55;;;;;;;0.20;0.20;;;;;;;;;;5054024;28;20502;-65
2021/07/14 12:18:21;;;;;;;0.20;0.20;;;;;;;;;;5071845;28;20413;-65
2021/07/14 12:20:48;;;;;;;0.20;0.20;;;;;;;;;;5072053;28;20416;-65
2021/07/14 12:23:15;;;;;;;0.20;0.20;;;;;;;;;;5072325;28;20426;-65
2021/07/14 12:25:41;;;;;;;0.20;0.20;;;;;;;;;;5072369;28;20405;-65
2021/07/14 12:28:14;;;;;;;0.20;0.20;;;;;;;;;;5071396;28;20504;-64
2021/07/14 12:30:41;;;;;;;0.20;0.20;;;;;;;;;;5071703;28;20413;-65
2021/07/14 12:33:08;;;;;;;0.20;0.20;;;;;;;;;;5072144;28;20436;-60
2021/07/14 12:35:36;;;;;;;0.20;0.20;;;;;;;;;;5072052;28;20391;-65
2021/07/14 12:38:10;;;;;;;0.20;0.20;;;;;;;;;;5054302;28;20588;-63
2021/07/14 12:40:36;;;;;;;0.20;0.20;;;;;;;;;;5071125;28;20947;-65
2021/07/14 12:43:04;;;;;;;0.20;0.20;;;;;;;;;;5071710;28;20441;-64
2021/07/14 12:45:35;;;;;;;0.20;0.20;;;;;;;;;;5071836;28;20413;-66
2021/07/14 12:48:02;;;;;;;0.20;0.20;;;;;;;;;;5071852;28;20448;-64
2021/07/14 12:50:28;;;;;;;0.20;0.20;;;;;;;;;;5070998;28;20453;-65
2021/07/14 12:52:55;;;;;;;0.20;0.20;;;;;;;;;;5071730;28;20455;-65
2021/07/14 12:55:22;;;;;;;0.20;0.20;;;;;;;;;;5071627;28;20413;-65
2021/07/14 12:57:48;;;;;;;0.20;0.20;;;;;;;;;;5071595;28;20417;-64
2021/07/14 13:00:16;;;;;;;0.20;0.20;;;;;;;;;;5071447;28;20900;-65
2021/07/14 13:02:51;;;;;;;0.20;0.20;;;;;;;;;;5070971;28;20512;-64
2021/07/14 13:05:19;;;;;;;0.20;0.20;;;;;;;;;;5071882;28;20488;-65
2021/07/14 13:07:50;;;;;;;0.20;0.20;;;;;;;;;;5071645;28;20562;-64
2021/07/14 13:10:17;;;;;;;0.20;0.20;;;;;;;;;;5071175;28;20384;-65
2021/07/14 13:12:44;;;;;;;0.20;0.20;;;;;;;;;;5070953;28;20427;-67
2021/07/14 13:15:11;;;;;;;0.20;0.20;;;;;;;;;;5071209;28;20409;-66
2021/07/14 13:17:38;;;;;;;0.20;0.20;;;;;;;;;;5071469;28;20424;-67
2021/07/14 13:20:09;;;;;;;0.20;0.20;;;;;;;;;;5071170;28;20405;-62
2021/07/14 13:22:35;;;;;;;0.20;0.20;;;;;;;;;;5071239;28;20898;-65
2021/07/14 13:25:14;;;;;;;0.20;0.20;;;;;;;;;;5070939;28;20878;-65
2021/07/14 13:27:41;;;;;;;0.20;0.20;;;;;;;;;;5071300;28;20377;-63
2021/07/14 13:30:24;;;;;;;0.20;0.20;;;;;;;;;;5053126;28;20392;-65
2021/07/14 13:33:13;;;;;;;0.20;0.20;;;;;;;;;;5071133;28;20511;-65
2021/07/14 13:35:40;;;;;;;0.20;0.20;;;;;;;;;;5070960;28;21033;-64
2021/07/14 13:38:25;;;;;;;0.20;0.20;;;;;;;;;;5071513;28;20890;-65
2021/07/14 13:40:52;;;;;;;0.20;0.20;;;;;;;;;;5052511;28;20447;-65
2021/07/14 13:43:18;;;;;;;0.20;0.20;;;;;;;;;;5070076;28;20420;-66
2021/07/14 13:45:44;;;;;;;0.20;0.20;;;;;;;;;;5070710;28;20449;-65
2021/07/14 13:48:10;;;;;;;0.20;0.20;;;;;;;;;;5070875;28;20536;-65
2021/07/14 13:50:36;;;;;;;0.20;0.20;;;;;;;;;;5070656;28;20768;-64
2021/07/14 13:53:04;;;;;;;0.20;0.20;;;;;;;;;;5070679;28;20487;-65
2021/07/14 13:55:30;;;;;;;0.20;0.20;;;;;;;;;;5070995;28;20401;-65
2021/07/14 13:58:06;;;;;;;0.20;0.20;;;;;;;;;;5070259;28;20420;-64
2021/07/14 14:00:32;;;;;;;0.20;0.20;;;;;;;;;;5070726;28;20412;-66
2021/07/14 14:02:58;;;;;;;0.20;0.20;;;;;;;;;;5070772;28;20432;-64
2021/07/14 14:05:25;;;;;;;0.20;0.20;;;;;;;;;;5070488;28;20406;-64
2021/07/14 14:07:52;;;;;;;0.20;0.20;;;;;;;;;;5070610;28;20456;-65
2021/07/14 14:10:20;;;;;;;0.20;0.20;;;;;;;;;;5070233;28;20471;-65
2021/07/14 14:12:55;;;;;;;0.20;0.20;;;;;;;;;;5070763;28;20421;-65
2021/07/14 14:15:28;;;;;;;0.20;0.20;;;;;;;;;;5071029;28;20391;-64
2021/07/14 14:17:54;;;;;;;0.20;0.20;;;;;;;;;;5071052;28;20526;-66
2021/07/14 14:20:22;;;;;;;0.20;0.20;;;;;;;;;;5052420;28;20790;-64
2021/07/14 14:22:48;;;;;;;0.20;0.20;;;;;;;;;;5070620;28;20494;-65
2021/07/14 14:25:16;;;;;;;0.20;0.20;;;;;;;;;;5070776;28;20441;-65
2021/07/14 14:30:21;;;;;;;0.20;0.20;;;;;;;;;;5069952;28;20902;-65
2021/07/14 14:32:51;;;;;;;0.20;0.20;;;;;;;;;;5070355;28;20411;-65
2021/07/14 14:35:17;;;;;;;0.20;0.20;;;;;;;;;;5070692;28;20405;-65
2021/07/14 14:37:43;;;;;;;0.20;0.20;;;;;;;;;;5070594;28;20492;-64
2021/07/14 14:40:10;;;;;;;0.20;0.20;;;;;;;;;;5070318;28;20408;-64
2021/07/14 14:42:36;;;;;;;0.20;0.20;;;;;;;;;;5069568;28;20533;-63
2021/07/14 14:45:02;;;;;;;0.20;0.20;;;;;;;;;;5070577;28;20449;-64
2021/07/14 14:47:28;;;;;;;0.20;0.20;;;;;;;;;;5070484;28;20410;-59
2021/07/14 14:49:54;;;;;;;0.20;0.20;;;;;;;;;;5070072;28;20448;-64
2021/07/14 14:52:20;;;;;;;0.20;0.20;;;;;;;;;;5070406;28;20411;-65
2021/07/14 14:54:46;;;;;;;0.20;0.20;;;;;;;;;;5072734;28;20522;-63
2021/07/14 14:57:12;;;;;;;0.20;0.20;;;;;;;;;;5073758;28;20431;-65